sensor_id;sensor_type;location;lat;lon;timestamp;P1;durP1;ratioP1;P2;durP2;ratioP2
37891;SDS011;45797;47.466;9.486;2023-06-14T00:00:52;3.80;;;2.00;;
37891;SDS011;45797;47.466;9.486;2023-06-14T00:05:55;5.95;;;2.13;;
37891;SDS011;45797;47.466;9.486;2023-06-14T00:16:07;5.25;;;1.80;;
37891;SDS011;45797;47.466;9.486;2023-06-14T00:21:08;3.83;;;1.88;;
37891;SDS011;45797;47.466;9.486;2023-06-14T00:26:10;4.80;;;2.22;;
37891;SDS011;45797;47.466;9.486;2023-06-14T00:31:28;4.53;;;2.40;;
37891;SDS011;45797;47.466;9.486;2023-06-14T00:41:35;6.78;;;2.00;;
37891;SDS011;45797;47.466;9.486;2023-06-14T00:51:38;4.45;;;2.05;;
37891;SDS011;45797;47.466;9.486;2023-06-14T00:56:40;4.78;;;2.20;;
37891;SDS011;45797;47.466;9.486;2023-06-14T01:01:41;3.63;;;2.00;;
37891;SDS011;45797;47.466;9.486;2023-06-14T01:12:18;4.53;;;2.20;;
37891;SDS011;45797;47.466;9.486;2023-06-14T01:17:37;4.57;;;2.15;;
37891;SDS011;45797;47.466;9.486;2023-06-14T01:22:52;3.22;;;1.67;;
37891;SDS011;45797;47.466;9.486;2023-06-14T01:28:00;3.78;;;2.00;;
37891;SDS011;45797;47.466;9.486;2023-06-14T01:33:11;3.22;;;1.85;;
37891;SDS011;45797;47.466;9.486;2023-06-14T01:43:21;4.40;;;2.15;;
37891;SDS011;45797;47.466;9.486;2023-06-14T01:48:25;4.63;;;2.10;;
37891;SDS011;45797;47.466;9.486;2023-06-14T01:53:25;4.63;;;2.20;;
37891;SDS011;45797;47.466;9.486;2023-06-14T01:58:28;4.57;;;2.17;;
37891;SDS011;45797;47.466;9.486;2023-06-14T02:03:28;4.40;;;2.28;;
37891;SDS011;45797;47.466;9.486;2023-06-14T02:08:28;4.15;;;2.00;;
37891;SDS011;45797;47.466;9.486;2023-06-14T02:13:29;3.78;;;2.08;;
37891;SDS011;45797;47.466;9.486;2023-06-14T02:18:32;4.05;;;1.92;;
37891;SDS011;45797;47.466;9.486;2023-06-14T02:23:32;4.28;;;2.05;;
37891;SDS011;45797;47.466;9.486;2023-06-14T02:28:35;4.53;;;2.40;;
37891;SDS011;45797;47.466;9.486;2023-06-14T02:33:35;4.00;;;1.90;;
37891;SDS011;45797;47.466;9.486;2023-06-14T02:38:36;4.30;;;2.10;;
37891;SDS011;45797;47.466;9.486;2023-06-14T02:43:38;9.27;;;2.00;;
37891;SDS011;45797;47.466;9.486;2023-06-14T02:48:46;4.63;;;2.20;;
37891;SDS011;45797;47.466;9.486;2023-06-14T02:54:02;3.58;;;1.92;;
37891;SDS011;45797;47.466;9.486;2023-06-14T02:59:04;8.40;;;2.38;;
37891;SDS011;45797;47.466;9.486;2023-06-14T03:04:05;3.72;;;1.85;;
37891;SDS011;45797;47.466;9.486;2023-06-14T03:09:22;3.15;;;1.80;;
37891;SDS011;45797;47.466;9.486;2023-06-14T03:14:22;5.63;;;1.95;;
37891;SDS011;45797;47.466;9.486;2023-06-14T03:24:50;3.95;;;2.10;;
37891;SDS011;45797;47.466;9.486;2023-06-14T03:29:51;5.82;;;2.15;;
37891;SDS011;45797;47.466;9.486;2023-06-14T03:35:01;4.00;;;1.92;;
37891;SDS011;45797;47.466;9.486;2023-06-14T03:45:10;5.82;;;2.28;;
37891;SDS011;45797;47.466;9.486;2023-06-14T03:50:11;6.55;;;2.28;;
37891;SDS011;45797;47.466;9.486;2023-06-14T03:55:13;4.95;;;2.28;;
37891;SDS011;45797;47.466;9.486;2023-06-14T04:00:26;3.58;;;1.80;;
37891;SDS011;45797;47.466;9.486;2023-06-14T04:10:42;4.10;;;2.20;;
37891;SDS011;45797;47.466;9.486;2023-06-14T04:15:52;4.05;;;2.10;;
37891;SDS011;45797;47.466;9.486;2023-06-14T04:21:00;3.95;;;2.20;;
37891;SDS011;45797;47.466;9.486;2023-06-14T04:26:08;5.00;;;2.30;;
37891;SDS011;45797;47.466;9.486;2023-06-14T04:31:11;7.68;;;2.33;;
37891;SDS011;45797;47.466;9.486;2023-06-14T04:36:12;9.93;;;2.60;;
37891;SDS011;45797;47.466;9.486;2023-06-14T04:41:14;5.30;;;2.60;;
37891;SDS011;45797;47.466;9.486;2023-06-14T04:46:17;6.63;;;3.50;;
37891;SDS011;45797;47.466;9.486;2023-06-14T04:51:19;6.50;;;3.70;;
37891;SDS011;45797;47.466;9.486;2023-06-14T04:56:23;6.38;;;2.83;;
37891;SDS011;45797;47.466;9.486;2023-06-14T05:01:33;5.28;;;2.90;;
37891;SDS011;45797;47.466;9.486;2023-06-14T05:06:35;7.40;;;3.00;;
37891;SDS011;45797;47.466;9.486;2023-06-14T05:11:36;5.18;;;2.78;;
37891;SDS011;45797;47.466;9.486;2023-06-14T05:16:38;9.23;;;2.95;;
37891;SDS011;45797;47.466;9.486;2023-06-14T05:21:39;9.73;;;3.72;;
37891;SDS011;45797;47.466;9.486;2023-06-14T05:26:40;6.80;;;2.85;;
37891;SDS011;45797;47.466;9.486;2023-06-14T05:31:41;4.35;;;2.78;;
37891;SDS011;45797;47.466;9.486;2023-06-14T05:36:42;5.90;;;2.85;;
37891;SDS011;45797;47.466;9.486;2023-06-14T05:41:51;5.40;;;2.95;;
37891;SDS011;45797;47.466;9.486;2023-06-14T05:47:02;9.00;;;2.88;;
37891;SDS011;45797;47.466;9.486;2023-06-14T05:57:08;5.53;;;3.05;;
37891;SDS011;45797;47.466;9.486;2023-06-14T06:02:14;5.05;;;2.70;;
37891;SDS011;45797;47.466;9.486;2023-06-14T06:07:16;5.55;;;2.80;;
37891;SDS011;45797;47.466;9.486;2023-06-14T06:12:19;4.93;;;2.80;;
37891;SDS011;45797;47.466;9.486;2023-06-14T06:17:20;5.88;;;2.80;;
37891;SDS011;45797;47.466;9.486;2023-06-14T06:22:20;5.45;;;2.80;;
37891;SDS011;45797;47.466;9.486;2023-06-14T06:27:35;4.85;;;2.78;;
37891;SDS011;45797;47.466;9.486;2023-06-14T06:32:37;6.63;;;2.75;;
37891;SDS011;45797;47.466;9.486;2023-06-14T06:42:47;4.32;;;2.60;;
37891;SDS011;45797;47.466;9.486;2023-06-14T06:47:49;6.63;;;2.90;;
37891;SDS011;45797;47.466;9.486;2023-06-14T06:58:11;5.43;;;2.88;;
37891;SDS011;45797;47.466;9.486;2023-06-14T07:08:16;7.40;;;2.90;;
37891;SDS011;45797;47.466;9.486;2023-06-14T07:13:24;7.78;;;3.20;;
37891;SDS011;45797;47.466;9.486;2023-06-14T07:18:33;5.55;;;3.08;;
37891;SDS011;45797;47.466;9.486;2023-06-14T07:23:33;4.75;;;3.00;;
37891;SDS011;45797;47.466;9.486;2023-06-14T07:28:33;6.57;;;3.25;;
37891;SDS011;45797;47.466;9.486;2023-06-14T07:38:51;7.90;;;3.08;;
37891;SDS011;45797;47.466;9.486;2023-06-14T07:43:58;6.65;;;3.05;;
37891;SDS011;45797;47.466;9.486;2023-06-14T07:48:58;8.13;;;3.20;;
37891;SDS011;45797;47.466;9.486;2023-06-14T07:54:09;6.18;;;3.00;;
37891;SDS011;45797;47.466;9.486;2023-06-14T07:59:14;6.35;;;3.50;;
37891;SDS011;45797;47.466;9.486;2023-06-14T08:04:20;5.45;;;3.00;;
37891;SDS011;45797;47.466;9.486;2023-06-14T08:09:21;4.70;;;2.72;;
37891;SDS011;45797;47.466;9.486;2023-06-14T08:14:24;4.90;;;2.88;;
37891;SDS011;45797;47.466;9.486;2023-06-14T08:19:32;5.68;;;3.05;;
37891;SDS011;45797;47.466;9.486;2023-06-14T08:24:33;8.43;;;3.13;;
37891;SDS011;45797;47.466;9.486;2023-06-14T08:29:34;7.25;;;3.00;;
37891;SDS011;45797;47.466;9.486;2023-06-14T08:34:34;8.27;;;3.08;;
37891;SDS011;45797;47.466;9.486;2023-06-14T08:39:35;5.47;;;3.13;;
37891;SDS011;45797;47.466;9.486;2023-06-14T08:44:41;5.00;;;3.03;;
37891;SDS011;45797;47.466;9.486;2023-06-14T08:54:46;5.65;;;2.78;;
37891;SDS011;45797;47.466;9.486;2023-06-14T09:00:02;4.53;;;2.80;;
37891;SDS011;45797;47.466;9.486;2023-06-14T09:05:17;5.32;;;2.50;;
37891;SDS011;45797;47.466;9.486;2023-06-14T09:20:40;4.97;;;2.50;;
37891;SDS011;45797;47.466;9.486;2023-06-14T09:25:43;5.07;;;2.85;;
37891;SDS011;45797;47.466;9.486;2023-06-14T09:30:43;6.82;;;2.90;;
37891;SDS011;45797;47.466;9.486;2023-06-14T09:35:51;9.60;;;5.05;;
37891;SDS011;45797;47.466;9.486;2023-06-14T09:40:55;6.10;;;2.60;;
37891;SDS011;45797;47.466;9.486;2023-06-14T09:45:57;5.32;;;3.00;;
37891;SDS011;45797;47.466;9.486;2023-06-14T09:51:03;5.13;;;2.67;;
37891;SDS011;45797;47.466;9.486;2023-06-14T10:01:43;5.22;;;3.10;;
37891;SDS011;45797;47.466;9.486;2023-06-14T10:06:46;4.95;;;3.03;;
37891;SDS011;45797;47.466;9.486;2023-06-14T10:11:47;9.60;;;5.15;;
37891;SDS011;45797;47.466;9.486;2023-06-14T10:16:56;6.40;;;3.40;;
37891;SDS011;45797;47.466;9.486;2023-06-14T10:27:25;5.20;;;3.33;;
37891;SDS011;45797;47.466;9.486;2023-06-14T10:37:45;5.13;;;2.90;;
37891;SDS011;45797;47.466;9.486;2023-06-14T10:42:52;8.13;;;3.03;;
37891;SDS011;45797;47.466;9.486;2023-06-14T10:47:56;5.50;;;3.17;;
37891;SDS011;45797;47.466;9.486;2023-06-14T10:52:59;5.15;;;3.13;;
37891;SDS011;45797;47.466;9.486;2023-06-14T10:58:00;4.57;;;3.20;;
37891;SDS011;45797;47.466;9.486;2023-06-14T11:03:43;4.75;;;2.97;;
37891;SDS011;45797;47.466;9.486;2023-06-14T11:14:08;4.95;;;3.28;;
37891;SDS011;45797;47.466;9.486;2023-06-14T11:19:10;6.53;;;3.17;;
37891;SDS011;45797;47.466;9.486;2023-06-14T11:24:12;14.48;;;3.80;;
37891;SDS011;45797;47.466;9.486;2023-06-14T11:29:12;5.75;;;3.78;;
37891;SDS011;45797;47.466;9.486;2023-06-14T11:34:21;6.35;;;3.33;;
37891;SDS011;45797;47.466;9.486;2023-06-14T11:39:43;4.93;;;3.28;;
37891;SDS011;45797;47.466;9.486;2023-06-14T11:44:57;5.32;;;3.17;;
37891;SDS011;45797;47.466;9.486;2023-06-14T11:49:58;5.68;;;2.80;;
37891;SDS011;45797;47.466;9.486;2023-06-14T11:55:04;4.80;;;2.83;;
37891;SDS011;45797;47.466;9.486;2023-06-14T12:00:09;5.70;;;2.72;;
37891;SDS011;45797;47.466;9.486;2023-06-14T12:05:15;4.53;;;2.88;;
37891;SDS011;45797;47.466;9.486;2023-06-14T12:10:28;4.45;;;3.00;;
37891;SDS011;45797;47.466;9.486;2023-06-14T12:21:10;4.38;;;2.90;;
37891;SDS011;45797;47.466;9.486;2023-06-14T12:26:12;7.68;;;3.60;;
37891;SDS011;45797;47.466;9.486;2023-06-14T12:31:16;4.97;;;2.70;;
37891;SDS011;45797;47.466;9.486;2023-06-14T12:36:19;5.72;;;3.28;;
37891;SDS011;45797;47.466;9.486;2023-06-14T12:41:20;4.03;;;2.70;;
37891;SDS011;45797;47.466;9.486;2023-06-14T12:46:40;4.10;;;2.53;;
37891;SDS011;45797;47.466;9.486;2023-06-14T12:51:54;5.00;;;2.72;;
37891;SDS011;45797;47.466;9.486;2023-06-14T12:57:00;4.22;;;2.67;;
37891;SDS011;45797;47.466;9.486;2023-06-14T13:02:15;4.43;;;2.85;;
37891;SDS011;45797;47.466;9.486;2023-06-14T13:07:17;4.38;;;2.70;;
37891;SDS011;45797;47.466;9.486;2023-06-14T13:17:24;4.45;;;2.95;;
37891;SDS011;45797;47.466;9.486;2023-06-14T13:22:27;5.97;;;2.88;;
37891;SDS011;45797;47.466;9.486;2023-06-14T13:27:27;4.68;;;2.70;;
37891;SDS011;45797;47.466;9.486;2023-06-14T13:32:29;4.72;;;3.10;;
37891;SDS011;45797;47.466;9.486;2023-06-14T13:37:29;5.10;;;3.10;;
37891;SDS011;45797;47.466;9.486;2023-06-14T13:42:29;5.28;;;3.13;;
37891;SDS011;45797;47.466;9.486;2023-06-14T13:47:32;4.32;;;2.80;;
37891;SDS011;45797;47.466;9.486;2023-06-14T13:57:39;4.93;;;2.58;;
37891;SDS011;45797;47.466;9.486;2023-06-14T14:02:41;4.63;;;2.70;;
37891;SDS011;45797;47.466;9.486;2023-06-14T14:07:48;4.60;;;2.70;;
37891;SDS011;45797;47.466;9.486;2023-06-14T14:12:58;4.53;;;2.70;;
37891;SDS011;45797;47.466;9.486;2023-06-14T14:18:00;4.80;;;2.75;;
37891;SDS011;45797;47.466;9.486;2023-06-14T14:23:00;4.55;;;2.78;;
37891;SDS011;45797;47.466;9.486;2023-06-14T14:28:03;4.15;;;2.60;;
37891;SDS011;45797;47.466;9.486;2023-06-14T14:33:21;5.30;;;2.80;;
37891;SDS011;45797;47.466;9.486;2023-06-14T14:38:22;4.18;;;2.85;;
37891;SDS011;45797;47.466;9.486;2023-06-14T14:43:25;4.18;;;2.60;;
37891;SDS011;45797;47.466;9.486;2023-06-14T14:48:32;5.00;;;2.97;;
37891;SDS011;45797;47.466;9.486;2023-06-14T14:53:47;5.30;;;2.75;;
37891;SDS011;45797;47.466;9.486;2023-06-14T14:58:58;5.15;;;3.22;;
37891;SDS011;45797;47.466;9.486;2023-06-14T15:03:58;3.35;;;2.40;;
37891;SDS011;45797;47.466;9.486;2023-06-14T15:09:00;4.43;;;2.50;;
37891;SDS011;45797;47.466;9.486;2023-06-14T15:14:02;4.07;;;2.80;;
37891;SDS011;45797;47.466;9.486;2023-06-14T15:19:09;9.45;;;2.95;;
37891;SDS011;45797;47.466;9.486;2023-06-14T15:24:26;3.88;;;2.60;;
37891;SDS011;45797;47.466;9.486;2023-06-14T15:29:26;4.22;;;2.60;;
37891;SDS011;45797;47.466;9.486;2023-06-14T15:34:35;4.53;;;2.60;;
37891;SDS011;45797;47.466;9.486;2023-06-14T15:39:37;6.68;;;3.13;;
37891;SDS011;45797;47.466;9.486;2023-06-14T15:44:43;3.90;;;2.63;;
37891;SDS011;45797;47.466;9.486;2023-06-14T15:49:44;3.50;;;2.58;;
37891;SDS011;45797;47.466;9.486;2023-06-14T15:54:44;3.90;;;2.60;;
37891;SDS011;45797;47.466;9.486;2023-06-14T15:59:46;4.18;;;2.47;;
37891;SDS011;45797;47.466;9.486;2023-06-14T16:04:49;5.43;;;2.35;;
37891;SDS011;45797;47.466;9.486;2023-06-14T16:09:50;4.10;;;2.50;;
37891;SDS011;45797;47.466;9.486;2023-06-14T16:14:50;3.13;;;2.20;;
37891;SDS011;45797;47.466;9.486;2023-06-14T16:20:07;3.58;;;2.60;;
37891;SDS011;45797;47.466;9.486;2023-06-14T16:25:08;3.33;;;2.38;;
37891;SDS011;45797;47.466;9.486;2023-06-14T16:30:08;3.40;;;2.50;;
37891;SDS011;45797;47.466;9.486;2023-06-14T16:35:17;4.57;;;2.58;;
37891;SDS011;45797;47.466;9.486;2023-06-14T16:40:25;4.55;;;2.70;;
37891;SDS011;45797;47.466;9.486;2023-06-14T16:45:28;3.60;;;2.63;;
37891;SDS011;45797;47.466;9.486;2023-06-14T16:50:30;3.63;;;2.53;;
37891;SDS011;45797;47.466;9.486;2023-06-14T16:55:30;3.70;;;2.67;;
37891;SDS011;45797;47.466;9.486;2023-06-14T17:05:34;3.40;;;2.70;;
37891;SDS011;45797;47.466;9.486;2023-06-14T17:10:35;3.72;;;2.42;;
37891;SDS011;45797;47.466;9.486;2023-06-14T17:15:37;3.45;;;2.75;;
37891;SDS011;45797;47.466;9.486;2023-06-14T17:20:38;5.57;;;2.97;;
37891;SDS011;45797;47.466;9.486;2023-06-14T17:25:39;4.47;;;2.70;;
37891;SDS011;45797;47.466;9.486;2023-06-14T17:30:41;3.55;;;2.60;;
37891;SDS011;45797;47.466;9.486;2023-06-14T17:40:45;3.97;;;2.72;;
37891;SDS011;45797;47.466;9.486;2023-06-14T17:45:53;3.80;;;2.67;;
37891;SDS011;45797;47.466;9.486;2023-06-14T18:01:20;3.65;;;2.50;;
37891;SDS011;45797;47.466;9.486;2023-06-14T18:16:50;4.35;;;2.63;;
37891;SDS011;45797;47.466;9.486;2023-06-14T18:22:00;5.30;;;2.85;;
37891;SDS011;45797;47.466;9.486;2023-06-14T18:32:08;5.57;;;2.92;;
37891;SDS011;45797;47.466;9.486;2023-06-14T18:37:08;5.32;;;2.60;;
37891;SDS011;45797;47.466;9.486;2023-06-14T18:42:09;4.38;;;2.60;;
37891;SDS011;45797;47.466;9.486;2023-06-14T18:47:11;4.80;;;2.70;;
37891;SDS011;45797;47.466;9.486;2023-06-14T18:52:13;9.80;;;3.05;;
37891;SDS011;45797;47.466;9.486;2023-06-14T18:57:16;4.38;;;2.40;;
37891;SDS011;45797;47.466;9.486;2023-06-14T19:02:19;5.07;;;2.90;;
37891;SDS011;45797;47.466;9.486;2023-06-14T19:07:28;5.45;;;3.00;;
37891;SDS011;45797;47.466;9.486;2023-06-14T19:12:28;4.70;;;2.90;;
37891;SDS011;45797;47.466;9.486;2023-06-14T19:28:14;5.43;;;2.80;;
37891;SDS011;45797;47.466;9.486;2023-06-14T19:33:22;5.45;;;2.40;;
37891;SDS011;45797;47.466;9.486;2023-06-14T19:38:33;4.82;;;2.63;;
37891;SDS011;45797;47.466;9.486;2023-06-14T19:43:36;4.53;;;2.60;;
37891;SDS011;45797;47.466;9.486;2023-06-14T19:48:37;4.20;;;2.65;;
37891;SDS011;45797;47.466;9.486;2023-06-14T19:53:55;5.53;;;2.42;;
37891;SDS011;45797;47.466;9.486;2023-06-14T19:58:56;5.35;;;2.80;;
37891;SDS011;45797;47.466;9.486;2023-06-14T20:03:57;5.28;;;2.72;;
37891;SDS011;45797;47.466;9.486;2023-06-14T20:08:57;4.85;;;2.53;;
37891;SDS011;45797;47.466;9.486;2023-06-14T20:19:03;5.00;;;2.58;;
37891;SDS011;45797;47.466;9.486;2023-06-14T20:24:03;4.30;;;2.70;;
37891;SDS011;45797;47.466;9.486;2023-06-14T20:29:05;4.35;;;2.33;;
37891;SDS011;45797;47.466;9.486;2023-06-14T20:34:07;5.50;;;2.60;;
37891;SDS011;45797;47.466;9.486;2023-06-14T20:39:14;4.90;;;2.85;;
37891;SDS011;45797;47.466;9.486;2023-06-14T20:44:17;5.30;;;2.65;;
37891;SDS011;45797;47.466;9.486;2023-06-14T20:49:35;7.03;;;2.88;;
37891;SDS011;45797;47.466;9.486;2023-06-14T20:54:36;7.40;;;2.40;;
37891;SDS011;45797;47.466;9.486;2023-06-14T20:59:41;5.55;;;2.47;;
37891;SDS011;45797;47.466;9.486;2023-06-14T21:04:42;4.75;;;2.63;;
37891;SDS011;45797;47.466;9.486;2023-06-14T21:09:45;4.75;;;2.75;;
37891;SDS011;45797;47.466;9.486;2023-06-14T21:14:46;6.55;;;2.75;;
37891;SDS011;45797;47.466;9.486;2023-06-14T21:19:48;8.65;;;2.50;;
37891;SDS011;45797;47.466;9.486;2023-06-14T21:24:48;5.15;;;2.35;;
37891;SDS011;45797;47.466;9.486;2023-06-14T21:29:48;6.00;;;2.75;;
37891;SDS011;45797;47.466;9.486;2023-06-14T21:34:49;5.18;;;2.72;;
37891;SDS011;45797;47.466;9.486;2023-06-14T21:39:50;4.45;;;2.85;;
37891;SDS011;45797;47.466;9.486;2023-06-14T21:49:57;5.88;;;2.80;;
37891;SDS011;45797;47.466;9.486;2023-06-14T21:54:57;8.02;;;2.75;;
37891;SDS011;45797;47.466;9.486;2023-06-14T21:59:59;4.45;;;2.47;;
37891;SDS011;45797;47.466;9.486;2023-06-14T22:04:59;6.55;;;2.67;;
37891;SDS011;45797;47.466;9.486;2023-06-14T22:10:07;5.75;;;2.80;;
37891;SDS011;45797;47.466;9.486;2023-06-14T22:15:18;4.80;;;2.50;;
37891;SDS011;45797;47.466;9.486;2023-06-14T22:20:21;4.05;;;2.30;;
37891;SDS011;45797;47.466;9.486;2023-06-14T22:25:30;4.30;;;2.65;;
37891;SDS011;45797;47.466;9.486;2023-06-14T22:35:45;3.83;;;2.25;;
37891;SDS011;45797;47.466;9.486;2023-06-14T22:40:46;5.45;;;2.17;;
37891;SDS011;45797;47.466;9.486;2023-06-14T22:51:18;6.53;;;2.67;;
37891;SDS011;45797;47.466;9.486;2023-06-14T23:01:46;4.78;;;2.55;;
37891;SDS011;45797;47.466;9.486;2023-06-14T23:06:57;3.63;;;2.47;;
37891;SDS011;45797;47.466;9.486;2023-06-14T23:12:11;3.92;;;2.45;;
37891;SDS011;45797;47.466;9.486;2023-06-14T23:17:13;7.45;;;2.60;;
37891;SDS011;45797;47.466;9.486;2023-06-14T23:22:14;4.55;;;2.67;;
37891;SDS011;45797;47.466;9.486;2023-06-14T23:27:17;5.18;;;2.63;;
37891;SDS011;45797;47.466;9.486;2023-06-14T23:32:19;4.30;;;2.35;;
37891;SDS011;45797;47.466;9.486;2023-06-14T23:37:19;4.22;;;2.58;;
37891;SDS011;45797;47.466;9.486;2023-06-14T23:42:34;4.30;;;2.67;;
37891;SDS011;45797;47.466;9.486;2023-06-14T23:47:35;4.25;;;2.35;;
37891;SDS011;45797;47.466;9.486;2023-06-14T23:52:36;5.40;;;2.55;;
37891;SDS011;45797;47.466;9.486;2023-06-14T23:57:37;5.53;;;2.80;;
